AirNav   Air Wisconsin pilot careers
 
 1010 users online  

MU03 Stockwell Field Airport
Brookfield, Missouri, USA

GOING TO BROOKFIELD?


FAA INFORMATION EFFECTIVE 08 NOVEMBER 2018

Location

FAA Identifier: MU03
Lat/Long: 39-42-55.1400N / 093-08-24.6600W
39-42.919000N / 093-08.411000W
39.7153167 / -93.1401833
(estimated)
Elevation: 760 ft. / 232 m (estimated)
From city: 4 miles SW of BROOKFIELD, MO
Time zone: UTC -6 (UTC -5 during Daylight Saving Time)
Zip code: 63557

Airport Operations

Airport use: Private use. Permission required prior to landing
Activation date: 07/2017
Control tower: no
ARTCC: KANSAS CITY CENTER
FSS: COLUMBIA FLIGHT SERVICE STATION
Attendance: CONTINUOUS
Wind indicator: yes
Segmented circle: no

Airport Communications

WX AWOS-AV at MO8 (7 nm NE): 118.425 (660-258-2151)
WX AWOS-3 at CHT (17 nm W): 118.175 (660-646-0713)
  • 122.85

Nearby radio navigation aids

VOR radial/distance  VOR name  Freq  Var
MCMr271/30.6MACON VOR/DME112.9006E
BQSr078/34.3BRAYMER VOR/DME111.2003E
IRKr219/35.7KIRKSVILLE VORTAC114.6006E

 
NDB name  Hdg/Dist  Freq  Var  ID
TRENTON133/30.240003ETRX - .-. -..-

Airport Services

Fuel available: MOGAS

Runway Information

Runway 18/36

Dimensions: 1720 x 148 ft. / 524 x 45 m
Surface: turf
RUNWAY 18  RUNWAY 36
Traffic pattern: rightleft

Airport Ownership and Management from official FAA records

Ownership: Privately-owned
Owner: GLENN L. STOCKWELL, INC
32263 GALLEY DR.
BROOKFIELD, MO 64628
Phone 660-258-3969
Manager: RANDALL W. STOCKWELL
32263 GALLEY DR.
BROOKFIELD, MO 64628
Phone 660-258-3969

Instrument Procedures

There are no published instrument procedures at MU03.

Some nearby airports with instrument procedures:

MO8 - North Central Missouri Regional Airport (7 nm NE)
KCHT - Chillicothe Municipal Airport (17 nm W)
KTRX - Trenton Municipal Airport (30 nm NW)
K89 - Macon-Fower Memorial Airport (32 nm E)
KIRK - Kirksville Regional Airport (36 nm NE)
 
Loc | Ops | Rwys | IFR | FBO | Links
Com | Nav | Svcs | Stats | Notes


 
Aerial photo
No photo
 
Airport distance calculator
Flying to Stockwell Field Airport? Find the distance to fly.

From to MU03

Sunrise and sunset
Times for 18-Nov-2018
 Local
(UTC-6)
 Zulu
(UTC)
Morning civil twilight06:3212:32
Sunrise07:0213:02
Sunset16:5422:54
Evening civil twilight17:2323:23

Current date and time
Zulu (UTC)  18-Nov-2018 18:06:25
Local (UTC-6)  18-Nov-2018 12:06:25
 
METAR
KCDJ 
21nm W 
181752Z AUTO 00000KT 01/M05 A3033 RMK AO1 SLP285 T00061050 10006 21044 58014
KIRK 
36nm NE 
181755Z AUTO 00000KT 10SM CLR M01/M05 A3030 RMK AO2 SLP273 T10061050 10000 21050 58017
KMBY 
36nm SE 
181755Z AUTO 34003KT 10SM OVC010 00/M02 A3030 RMK AO2
KMHL 
37nm S 
181755Z AUTO 02006KT 10SM OVC013 00/M03 A3033 RMK AO2
TAF
NOTAMs
Click for the latest NOTAMs
NOTAMs are issued by the DoD/FAA and will open in a separate window not controlled by AirNav.

 

 
 

Would you like to see your business listed on this page?

 If your business provides an interesting product or service to pilots, flight crews, aircraft, or users of the Stockwell Field Airport, you should consider listing it here.  To start the listing process, click on the button below
 
Add a business
 

Other Pages about Stockwell Field Airport

Update a link
 
Copyright © AirNav, LLC. All rights reserved. Privacy Policy  Contact